sensor_id;sensor_type;location;lat;lon;timestamp;pressure;altitude;pressure_sealevel;temperature;humidity
82290;BME280;71891;21.336;-157.724;2023-07-31T00:01:37;101448.50;;;31.59;28.83
82290;BME280;71891;21.336;-157.724;2023-07-31T00:04:03;101446.22;;;33.97;27.06
82290;BME280;71891;21.336;-157.724;2023-07-31T00:06:28;101442.02;;;33.13;26.95
82290;BME280;71891;21.336;-157.724;2023-07-31T00:08:54;101444.90;;;33.44;26.86
82290;BME280;71891;21.336;-157.724;2023-07-31T00:11:20;101440.08;;;32.37;27.02
82290;BME280;71891;21.336;-157.724;2023-07-31T00:13:45;101439.48;;;33.82;26.55
82290;BME280;71891;21.336;-157.724;2023-07-31T00:16:11;101434.76;;;32.02;28.48
82290;BME280;71891;21.336;-157.724;2023-07-31T00:18:36;101431.07;;;31.55;29.22
82290;BME280;71891;21.336;-157.724;2023-07-31T00:21:02;101430.62;;;33.60;27.79
82290;BME280;71891;21.336;-157.724;2023-07-31T00:23:27;101427.78;;;33.34;27.27
82290;BME280;71891;21.336;-157.724;2023-07-31T00:25:53;101427.66;;;33.37;26.95
82290;BME280;71891;21.336;-157.724;2023-07-31T00:28:18;101424.06;;;33.40;27.32
82290;BME280;71891;21.336;-157.724;2023-07-31T00:30:45;101424.26;;;32.03;28.51
82290;BME280;71891;21.336;-157.724;2023-07-31T00:33:10;101427.18;;;33.29;27.34
82290;BME280;71891;21.336;-157.724;2023-07-31T00:35:35;101426.10;;;32.66;27.21
82290;BME280;71891;21.336;-157.724;2023-07-31T00:38:01;101428.15;;;32.80;27.31
82290;BME280;71891;21.336;-157.724;2023-07-31T00:40:26;101423.98;;;32.71;27.46
82290;BME280;71891;21.336;-157.724;2023-07-31T00:42:52;101416.55;;;33.54;26.84
82290;BME280;71891;21.336;-157.724;2023-07-31T00:45:17;101416.05;;;33.07;27.15
82290;BME280;71891;21.336;-157.724;2023-07-31T00:47:43;101412.97;;;32.94;27.54
82290;BME280;71891;21.336;-157.724;2023-07-31T00:50:09;101414.50;;;33.32;27.20
82290;BME280;71891;21.336;-157.724;2023-07-31T00:52:34;101408.43;;;33.67;26.62
82290;BME280;71891;21.336;-157.724;2023-07-31T00:55:00;101400.27;;;30.70;29.66
82290;BME280;71891;21.336;-157.724;2023-07-31T00:57:25;101397.49;;;32.27;28.27
82290;BME280;71891;21.336;-157.724;2023-07-31T00:59:51;101396.62;;;31.38;28.81
82290;BME280;71891;21.336;-157.724;2023-07-31T01:02:17;101404.36;;;33.29;27.03
82290;BME280;71891;21.336;-157.724;2023-07-31T01:04:43;101403.96;;;32.69;27.84
82290;BME280;71891;21.336;-157.724;2023-07-31T01:07:13;101403.18;;;32.63;28.02
82290;BME280;71891;21.336;-157.724;2023-07-31T01:09:40;101406.24;;;33.48;27.35
82290;BME280;71891;21.336;-157.724;2023-07-31T01:12:03;101401.67;;;33.86;27.01
82290;BME280;71891;21.336;-157.724;2023-07-31T01:14:24;101399.95;;;32.84;27.71
82290;BME280;71891;21.336;-157.724;2023-07-31T01:16:50;101395.38;;;33.83;26.66
82290;BME280;71891;21.336;-157.724;2023-07-31T01:19:17;101399.75;;;32.60;27.70
82290;BME280;71891;21.336;-157.724;2023-07-31T01:26:35;101390.52;;;33.63;26.58
82290;BME280;71891;21.336;-157.724;2023-07-31T01:29:03;101391.88;;;32.67;27.32
82290;BME280;71891;21.336;-157.724;2023-07-31T01:31:24;101389.67;;;32.47;28.20
82290;BME280;71891;21.336;-157.724;2023-07-31T01:33:50;101388.85;;;33.75;27.30
82290;BME280;71891;21.336;-157.724;2023-07-31T01:36:14;101393.60;;;32.57;27.52
82290;BME280;71891;21.336;-157.724;2023-07-31T01:38:40;101389.78;;;31.81;28.37
82290;BME280;71891;21.336;-157.724;2023-07-31T01:41:06;101387.89;;;31.93;28.82
82290;BME280;71891;21.336;-157.724;2023-07-31T01:43:31;101387.35;;;33.41;27.23
82290;BME280;71891;21.336;-157.724;2023-07-31T01:45:57;101382.56;;;33.21;26.89
82290;BME280;71891;21.336;-157.724;2023-07-31T01:48:22;101379.63;;;31.58;29.29
82290;BME280;71891;21.336;-157.724;2023-07-31T01:50:48;101375.84;;;31.57;28.24
82290;BME280;71891;21.336;-157.724;2023-07-31T01:53:13;101374.30;;;32.74;28.17
82290;BME280;71891;21.336;-157.724;2023-07-31T01:55:39;101367.34;;;30.52;29.75
82290;BME280;71891;21.336;-157.724;2023-07-31T01:58:05;101367.72;;;32.39;29.22
82290;BME280;71891;21.336;-157.724;2023-07-31T02:00:30;101370.79;;;32.68;28.57
82290;BME280;71891;21.336;-157.724;2023-07-31T02:02:56;101375.93;;;32.17;28.56
82290;BME280;71891;21.336;-157.724;2023-07-31T02:05:22;101370.86;;;31.97;28.92
82290;BME280;71891;21.336;-157.724;2023-07-31T02:07:48;101363.47;;;31.97;29.20
82290;BME280;71891;21.336;-157.724;2023-07-31T02:10:13;101360.28;;;31.89;29.35
82290;BME280;71891;21.336;-157.724;2023-07-31T02:12:38;101359.90;;;32.77;28.53
82290;BME280;71891;21.336;-157.724;2023-07-31T02:15:04;101362.54;;;31.84;29.61
82290;BME280;71891;21.336;-157.724;2023-07-31T02:17:34;101364.21;;;32.08;29.15
82290;BME280;71891;21.336;-157.724;2023-07-31T02:20:00;101359.84;;;31.42;29.73
82290;BME280;71891;21.336;-157.724;2023-07-31T02:22:21;101357.20;;;32.58;28.38
82290;BME280;71891;21.336;-157.724;2023-07-31T02:24:46;101352.87;;;33.44;27.47
82290;BME280;71891;21.336;-157.724;2023-07-31T02:27:12;101354.77;;;32.88;27.53
82290;BME280;71891;21.336;-157.724;2023-07-31T02:29:37;101349.18;;;33.47;27.10
82290;BME280;71891;21.336;-157.724;2023-07-31T02:32:03;101349.97;;;32.83;27.55
82290;BME280;71891;21.336;-157.724;2023-07-31T02:34:28;101359.04;;;33.04;26.72
82290;BME280;71891;21.336;-157.724;2023-07-31T02:36:54;101358.89;;;33.11;27.42
82290;BME280;71891;21.336;-157.724;2023-07-31T02:39:20;101357.44;;;32.24;27.96
82290;BME280;71891;21.336;-157.724;2023-07-31T02:41:46;101355.12;;;32.30;27.76
82290;BME280;71891;21.336;-157.724;2023-07-31T02:44:11;101351.72;;;31.51;28.61
82290;BME280;71891;21.336;-157.724;2023-07-31T02:46:36;101351.68;;;32.41;28.09
82290;BME280;71891;21.336;-157.724;2023-07-31T02:49:02;101348.37;;;33.00;27.64
82290;BME280;71891;21.336;-157.724;2023-07-31T02:51:28;101358.77;;;31.04;29.29
82290;BME280;71891;21.336;-157.724;2023-07-31T02:53:53;101355.59;;;32.22;28.47
82290;BME280;71891;21.336;-157.724;2023-07-31T02:56:19;101358.52;;;33.44;27.59
82290;BME280;71891;21.336;-157.724;2023-07-31T02:58:44;101362.73;;;32.92;27.91
82290;BME280;71891;21.336;-157.724;2023-07-31T03:01:10;101359.69;;;33.31;27.70
82290;BME280;71891;21.336;-157.724;2023-07-31T03:03:35;101357.63;;;32.18;28.83
82290;BME280;71891;21.336;-157.724;2023-07-31T03:06:01;101357.56;;;30.43;30.50
82290;BME280;71891;21.336;-157.724;2023-07-31T03:08:27;101356.09;;;30.37;30.63
82290;BME280;71891;21.336;-157.724;2023-07-31T03:10:52;101357.16;;;30.65;30.45
82290;BME280;71891;21.336;-157.724;2023-07-31T03:13:18;101355.76;;;33.30;27.56
82290;BME280;71891;21.336;-157.724;2023-07-31T03:15:44;101356.92;;;31.43;28.73
82290;BME280;71891;21.336;-157.724;2023-07-31T03:18:09;101357.99;;;32.01;28.90
82290;BME280;71891;21.336;-157.724;2023-07-31T03:20:35;101358.04;;;31.45;29.45
82290;BME280;71891;21.336;-157.724;2023-07-31T03:23:00;101361.79;;;31.81;29.46
82290;BME280;71891;21.336;-157.724;2023-07-31T03:25:26;101365.01;;;30.92;29.85
82290;BME280;71891;21.336;-157.724;2023-07-31T03:27:52;101365.29;;;32.31;28.43
82290;BME280;71891;21.336;-157.724;2023-07-31T03:30:17;101367.11;;;31.70;28.76
82290;BME280;71891;21.336;-157.724;2023-07-31T03:32:43;101363.52;;;32.28;28.69
82290;BME280;71891;21.336;-157.724;2023-07-31T03:35:08;101365.54;;;31.25;29.87
82290;BME280;71891;21.336;-157.724;2023-07-31T03:37:34;101364.88;;;30.98;31.16
82290;BME280;71891;21.336;-157.724;2023-07-31T03:39:59;101366.36;;;31.67;30.70
82290;BME280;71891;21.336;-157.724;2023-07-31T03:42:25;101372.13;;;30.69;31.43
82290;BME280;71891;21.336;-157.724;2023-07-31T03:44:50;101379.66;;;29.68;31.91
82290;BME280;71891;21.336;-157.724;2023-07-31T03:47:16;101381.10;;;30.30;31.59
82290;BME280;71891;21.336;-157.724;2023-07-31T03:49:42;101371.53;;;30.95;31.38
82290;BME280;71891;21.336;-157.724;2023-07-31T03:52:07;101372.82;;;30.52;31.06
82290;BME280;71891;21.336;-157.724;2023-07-31T03:54:33;101371.22;;;29.58;31.74
82290;BME280;71891;21.336;-157.724;2023-07-31T03:56:59;101373.51;;;31.03;31.04
82290;BME280;71891;21.336;-157.724;2023-07-31T03:59:24;101371.57;;;30.16;32.04
82290;BME280;71891;21.336;-157.724;2023-07-31T04:01:50;101372.29;;;31.02;31.41
82290;BME280;71891;21.336;-157.724;2023-07-31T04:04:16;101377.88;;;30.70;31.38
82290;BME280;71891;21.336;-157.724;2023-07-31T04:06:41;101378.18;;;30.70;31.10
82290;BME280;71891;21.336;-157.724;2023-07-31T04:09:06;101382.51;;;29.13;31.87
82290;BME280;71891;21.336;-157.724;2023-07-31T04:11:32;101381.10;;;30.47;31.72
82290;BME280;71891;21.336;-157.724;2023-07-31T04:13:57;101378.39;;;31.45;30.79
82290;BME280;71891;21.336;-157.724;2023-07-31T04:16:23;101385.09;;;30.63;31.51
82290;BME280;71891;21.336;-157.724;2023-07-31T04:18:48;101389.26;;;30.03;31.97
82290;BME280;71891;21.336;-157.724;2023-07-31T04:21:14;101388.37;;;31.22;31.06
82290;BME280;71891;21.336;-157.724;2023-07-31T04:23:39;101397.14;;;30.92;31.62
82290;BME280;71891;21.336;-157.724;2023-07-31T04:26:05;101402.00;;;31.17;30.90
82290;BME280;71891;21.336;-157.724;2023-07-31T04:28:31;101402.02;;;30.78;31.84
82290;BME280;71891;21.336;-157.724;2023-07-31T04:30:56;101403.16;;;30.82;31.49
82290;BME280;71891;21.336;-157.724;2023-07-31T04:33:22;101405.15;;;30.34;31.68
82290;BME280;71891;21.336;-157.724;2023-07-31T04:35:51;101408.80;;;30.42;31.23
82290;BME280;71891;21.336;-157.724;2023-07-31T04:38:13;101413.28;;;30.44;31.52
82290;BME280;71891;21.336;-157.724;2023-07-31T04:40:39;101416.65;;;30.37;31.15
82290;BME280;71891;21.336;-157.724;2023-07-31T04:43:04;101414.14;;;29.68;31.86
82290;BME280;71891;21.336;-157.724;2023-07-31T04:45:30;101420.53;;;30.32;31.33
82290;BME280;71891;21.336;-157.724;2023-07-31T04:47:56;101416.27;;;30.92;31.36
82290;BME280;71891;21.336;-157.724;2023-07-31T04:50:22;101418.50;;;29.34;31.30
82290;BME280;71891;21.336;-157.724;2023-07-31T04:52:47;101423.97;;;30.82;31.68
82290;BME280;71891;21.336;-157.724;2023-07-31T04:55:12;101422.09;;;28.65;32.71
82290;BME280;71891;21.336;-157.724;2023-07-31T04:57:38;101427.08;;;29.98;32.19
82290;BME280;71891;21.336;-157.724;2023-07-31T05:00:04;101426.51;;;30.45;32.02
82290;BME280;71891;21.336;-157.724;2023-07-31T05:02:29;101433.08;;;30.86;31.34
82290;BME280;71891;21.336;-157.724;2023-07-31T05:04:55;101436.57;;;30.07;31.54
82290;BME280;71891;21.336;-157.724;2023-07-31T05:07:20;101440.67;;;29.96;31.69
82290;BME280;71891;21.336;-157.724;2023-07-31T05:09:47;101447.62;;;29.88;31.89
82290;BME280;71891;21.336;-157.724;2023-07-31T05:12:12;101445.88;;;30.96;31.22
82290;BME280;71891;21.336;-157.724;2023-07-31T05:14:39;101443.43;;;29.68;31.57
82290;BME280;71891;21.336;-157.724;2023-07-31T05:17:03;101439.17;;;29.59;32.39
82290;BME280;71891;21.336;-157.724;2023-07-31T05:19:29;101443.11;;;29.69;32.21
82290;BME280;71891;21.336;-157.724;2023-07-31T05:21:54;101450.60;;;30.06;31.75
82290;BME280;71891;21.336;-157.724;2023-07-31T05:24:20;101452.72;;;30.15;32.07
82290;BME280;71891;21.336;-157.724;2023-07-31T05:26:46;101459.80;;;29.35;32.52
82290;BME280;71891;21.336;-157.724;2023-07-31T05:29:12;101457.02;;;29.15;32.38
82290;BME280;71891;21.336;-157.724;2023-07-31T05:31:37;101457.35;;;29.72;32.72
82290;BME280;71891;21.336;-157.724;2023-07-31T05:34:02;101454.01;;;30.02;32.51
82290;BME280;71891;21.336;-157.724;2023-07-31T05:36:28;101454.49;;;30.24;32.53
82290;BME280;71891;21.336;-157.724;2023-07-31T05:38:53;101458.04;;;30.40;32.37
82290;BME280;71891;21.336;-157.724;2023-07-31T05:41:20;101462.61;;;29.23;33.02
82290;BME280;71891;21.336;-157.724;2023-07-31T05:43:46;101462.04;;;30.08;32.62
82290;BME280;71891;21.336;-157.724;2023-07-31T05:46:10;101462.53;;;29.50;33.02
82290;BME280;71891;21.336;-157.724;2023-07-31T05:48:36;101462.92;;;30.39;32.31
82290;BME280;71891;21.336;-157.724;2023-07-31T05:51:02;101465.90;;;29.89;32.38
82290;BME280;71891;21.336;-157.724;2023-07-31T05:53:27;101471.23;;;30.05;32.39
82290;BME280;71891;21.336;-157.724;2023-07-31T05:55:53;101476.65;;;30.76;32.14
82290;BME280;71891;21.336;-157.724;2023-07-31T05:58:18;101477.76;;;30.17;32.55
82290;BME280;71891;21.336;-157.724;2023-07-31T06:00:45;101484.44;;;29.84;32.61
82290;BME280;71891;21.336;-157.724;2023-07-31T06:03:10;101486.17;;;30.12;33.03
82290;BME280;71891;21.336;-157.724;2023-07-31T06:05:35;101487.83;;;29.64;33.49
82290;BME280;71891;21.336;-157.724;2023-07-31T06:08:01;101490.72;;;29.67;31.95
82290;BME280;71891;21.336;-157.724;2023-07-31T06:10:27;101495.51;;;28.02;30.94
82290;BME280;71891;21.336;-157.724;2023-07-31T06:12:52;101493.08;;;29.15;30.44
82290;BME280;71891;21.336;-157.724;2023-07-31T06:15:18;101485.23;;;30.67;29.82
82290;BME280;71891;21.336;-157.724;2023-07-31T06:17:44;101488.30;;;30.50;30.96
82290;BME280;71891;21.336;-157.724;2023-07-31T06:20:09;101487.73;;;29.71;32.39
82290;BME280;71891;21.336;-157.724;2023-07-31T06:22:35;101486.35;;;30.18;31.64
82290;BME280;71891;21.336;-157.724;2023-07-31T06:25:00;101477.33;;;29.94;31.92
82290;BME280;71891;21.336;-157.724;2023-07-31T06:27:26;101483.57;;;30.26;31.80
82290;BME280;71891;21.336;-157.724;2023-07-31T06:29:52;101490.35;;;29.13;32.50
82290;BME280;71891;21.336;-157.724;2023-07-31T06:32:17;101490.96;;;29.96;32.64
82290;BME280;71891;21.336;-157.724;2023-07-31T06:34:43;101494.78;;;28.99;33.80
82290;BME280;71891;21.336;-157.724;2023-07-31T06:37:08;101494.04;;;29.12;33.66
82290;BME280;71891;21.336;-157.724;2023-07-31T06:39:34;101494.56;;;29.23;33.38
82290;BME280;71891;21.336;-157.724;2023-07-31T06:42:00;101492.70;;;29.74;33.03
82290;BME280;71891;21.336;-157.724;2023-07-31T06:44:25;101500.56;;;28.94;33.44
82290;BME280;71891;21.336;-157.724;2023-07-31T06:46:51;101503.12;;;29.68;33.11
82290;BME280;71891;21.336;-157.724;2023-07-31T06:49:17;101500.10;;;29.68;33.39
82290;BME280;71891;21.336;-157.724;2023-07-31T06:51:42;101500.55;;;29.52;33.32
82290;BME280;71891;21.336;-157.724;2023-07-31T06:54:08;101503.77;;;29.45;33.64
82290;BME280;71891;21.336;-157.724;2023-07-31T06:56:33;101505.01;;;29.39;32.94
82290;BME280;71891;21.336;-157.724;2023-07-31T06:58:59;101510.83;;;29.36;33.81
82290;BME280;71891;21.336;-157.724;2023-07-31T07:01:24;101518.87;;;29.32;33.64
82290;BME280;71891;21.336;-157.724;2023-07-31T07:03:50;101521.30;;;29.49;33.68
82290;BME280;71891;21.336;-157.724;2023-07-31T07:06:16;101516.63;;;29.60;33.50
82290;BME280;71891;21.336;-157.724;2023-07-31T07:08:41;101519.92;;;29.13;33.19
82290;BME280;71891;21.336;-157.724;2023-07-31T07:11:07;101527.61;;;29.19;33.36
82290;BME280;71891;21.336;-157.724;2023-07-31T07:13:33;101534.07;;;29.67;33.21
82290;BME280;71891;21.336;-157.724;2023-07-31T07:15:58;101534.45;;;29.23;33.57
82290;BME280;71891;21.336;-157.724;2023-07-31T07:18:24;101535.13;;;28.11;34.53
82290;BME280;71891;21.336;-157.724;2023-07-31T07:20:51;101539.44;;;28.46;34.28
82290;BME280;71891;21.336;-157.724;2023-07-31T07:23:15;101540.57;;;28.65;33.74
82290;BME280;71891;21.336;-157.724;2023-07-31T07:25:41;101538.82;;;28.88;33.01
82290;BME280;71891;21.336;-157.724;2023-07-31T07:28:06;101547.66;;;28.70;33.23
82290;BME280;71891;21.336;-157.724;2023-07-31T07:30:32;101544.46;;;28.44;33.74
82290;BME280;71891;21.336;-157.724;2023-07-31T07:32:58;101545.47;;;28.54;32.83
82290;BME280;71891;21.336;-157.724;2023-07-31T07:35:23;101553.59;;;29.19;32.61
82290;BME280;71891;21.336;-157.724;2023-07-31T07:37:49;101552.88;;;29.02;33.14
82290;BME280;71891;21.336;-157.724;2023-07-31T07:40:15;101557.22;;;28.98;32.35
82290;BME280;71891;21.336;-157.724;2023-07-31T07:42:40;101555.87;;;29.16;32.90
82290;BME280;71891;21.336;-157.724;2023-07-31T07:45:07;101561.36;;;27.81;33.47
82290;BME280;71891;21.336;-157.724;2023-07-31T07:47:31;101558.69;;;28.87;32.90
82290;BME280;71891;21.336;-157.724;2023-07-31T07:49:57;101568.16;;;26.81;33.72
82290;BME280;71891;21.336;-157.724;2023-07-31T07:52:23;101566.15;;;29.31;31.43
82290;BME280;71891;21.336;-157.724;2023-07-31T07:54:48;101564.45;;;29.15;31.46
82290;BME280;71891;21.336;-157.724;2023-07-31T07:57:14;101568.67;;;28.88;32.22
82290;BME280;71891;21.336;-157.724;2023-07-31T07:59:40;101567.44;;;29.21;32.61
82290;BME280;71891;21.336;-157.724;2023-07-31T08:02:05;101571.56;;;28.78;32.62
82290;BME280;71891;21.336;-157.724;2023-07-31T08:04:31;101574.45;;;28.99;32.27
82290;BME280;71891;21.336;-157.724;2023-07-31T08:06:56;101574.59;;;28.22;33.02
82290;BME280;71891;21.336;-157.724;2023-07-31T08:09:22;101572.80;;;28.87;33.28
82290;BME280;71891;21.336;-157.724;2023-07-31T08:11:48;101574.56;;;28.92;32.78
82290;BME280;71891;21.336;-157.724;2023-07-31T08:14:13;101574.10;;;28.18;33.60
82290;BME280;71891;21.336;-157.724;2023-07-31T08:16:39;101575.71;;;28.75;32.85
82290;BME280;71891;21.336;-157.724;2023-07-31T08:19:05;101574.13;;;28.63;33.53
82290;BME280;71891;21.336;-157.724;2023-07-31T08:21:30;101574.44;;;28.64;33.44
82290;BME280;71891;21.336;-157.724;2023-07-31T08:23:56;101576.23;;;28.49;33.41
82290;BME280;71891;21.336;-157.724;2023-07-31T08:26:22;101581.46;;;28.47;34.00
82290;BME280;71891;21.336;-157.724;2023-07-31T08:28:48;101581.64;;;28.69;33.20
82290;BME280;71891;21.336;-157.724;2023-07-31T08:31:13;101583.33;;;29.11;32.97
82290;BME280;71891;21.336;-157.724;2023-07-31T08:33:39;101584.91;;;28.71;33.48
82290;BME280;71891;21.336;-157.724;2023-07-31T08:36:04;101581.49;;;28.39;33.07
82290;BME280;71891;21.336;-157.724;2023-07-31T08:38:30;101582.93;;;28.42;33.60
82290;BME280;71891;21.336;-157.724;2023-07-31T08:40:58;101583.74;;;29.42;33.19
82290;BME280;71891;21.336;-157.724;2023-07-31T08:43:22;101580.07;;;29.27;33.73
82290;BME280;71891;21.336;-157.724;2023-07-31T08:45:47;101586.09;;;29.03;34.30
82290;BME280;71891;21.336;-157.724;2023-07-31T08:48:12;101591.11;;;28.92;34.74
82290;BME280;71891;21.336;-157.724;2023-07-31T08:50:39;101592.66;;;29.20;34.13
82290;BME280;71891;21.336;-157.724;2023-07-31T08:53:04;101592.09;;;28.84;34.28
82290;BME280;71891;21.336;-157.724;2023-07-31T08:55:30;101580.64;;;29.24;33.78
82290;BME280;71891;21.336;-157.724;2023-07-31T08:57:55;101593.30;;;28.89;34.48
82290;BME280;71891;21.336;-157.724;2023-07-31T09:00:21;101594.53;;;27.61;35.53
82290;BME280;71891;21.336;-157.724;2023-07-31T09:02:51;101587.33;;;29.93;33.16
82290;BME280;71891;21.336;-157.724;2023-07-31T09:05:12;101589.60;;;30.49;32.13
82290;BME280;71891;21.336;-157.724;2023-07-31T09:07:38;101590.36;;;31.29;31.85
82290;BME280;71891;21.336;-157.724;2023-07-31T09:10:04;101589.88;;;30.74;31.98
82290;BME280;71891;21.336;-157.724;2023-07-31T09:12:29;101580.97;;;29.99;32.55
82290;BME280;71891;21.336;-157.724;2023-07-31T09:14:55;101581.96;;;30.28;32.49
82290;BME280;71891;21.336;-157.724;2023-07-31T09:17:30;101574.00;;;29.34;33.72
82290;BME280;71891;21.336;-157.724;2023-07-31T09:19:46;101579.13;;;29.91;32.18
82290;BME280;71891;21.336;-157.724;2023-07-31T09:22:12;101576.74;;;30.69;31.74
82290;BME280;71891;21.336;-157.724;2023-07-31T09:24:37;101575.02;;;30.16;32.37
82290;BME280;71891;21.336;-157.724;2023-07-31T09:27:05;101576.16;;;30.35;32.25
82290;BME280;71891;21.336;-157.724;2023-07-31T09:29:29;101572.55;;;30.92;32.16
82290;BME280;71891;21.336;-157.724;2023-07-31T09:31:54;101574.08;;;30.46;32.24
82290;BME280;71891;21.336;-157.724;2023-07-31T09:34:20;101566.81;;;29.77;33.10
82290;BME280;71891;21.336;-157.724;2023-07-31T09:36:47;101568.19;;;31.35;31.88
82290;BME280;71891;21.336;-157.724;2023-07-31T09:39:12;101568.37;;;30.39;32.18
82290;BME280;71891;21.336;-157.724;2023-07-31T09:41:37;101565.75;;;30.33;32.15
82290;BME280;71891;21.336;-157.724;2023-07-31T09:44:02;101564.19;;;31.31;31.40
82290;BME280;71891;21.336;-157.724;2023-07-31T09:46:28;101564.08;;;29.92;32.70
82290;BME280;71891;21.336;-157.724;2023-07-31T09:48:54;101564.22;;;30.05;32.57
82290;BME280;71891;21.336;-157.724;2023-07-31T09:51:26;101569.15;;;30.16;32.53
82290;BME280;71891;21.336;-157.724;2023-07-31T09:53:50;101567.25;;;30.64;31.82
82290;BME280;71891;21.336;-157.724;2023-07-31T09:56:10;101566.27;;;29.89;32.13
82290;BME280;71891;21.336;-157.724;2023-07-31T09:58:36;101568.06;;;30.28;31.81
82290;BME280;71891;21.336;-157.724;2023-07-31T10:01:02;101568.36;;;30.46;31.96
82290;BME280;71891;21.336;-157.724;2023-07-31T10:03:28;101562.97;;;30.75;31.83
82290;BME280;71891;21.336;-157.724;2023-07-31T10:05:55;101558.57;;;30.88;31.51
82290;BME280;71891;21.336;-157.724;2023-07-31T10:08:21;101553.81;;;30.62;32.14
82290;BME280;71891;21.336;-157.724;2023-07-31T10:10:46;101542.32;;;30.54;31.58
82290;BME280;71891;21.336;-157.724;2023-07-31T10:13:10;101542.33;;;30.56;32.11
82290;BME280;71891;21.336;-157.724;2023-07-31T10:15:36;101543.24;;;30.72;31.95
82290;BME280;71891;21.336;-157.724;2023-07-31T10:18:01;101542.50;;;30.80;31.97
82290;BME280;71891;21.336;-157.724;2023-07-31T10:20:27;101539.12;;;29.57;33.44
82290;BME280;71891;21.336;-157.724;2023-07-31T10:22:52;101545.57;;;29.70;33.02
82290;BME280;71891;21.336;-157.724;2023-07-31T10:25:19;101547.75;;;29.99;32.86
82290;BME280;71891;21.336;-157.724;2023-07-31T10:27:44;101546.59;;;30.14;33.20
82290;BME280;71891;21.336;-157.724;2023-07-31T10:30:14;101548.23;;;30.35;32.78
82290;BME280;71891;21.336;-157.724;2023-07-31T10:32:36;101551.35;;;30.17;32.64
82290;BME280;71891;21.336;-157.724;2023-07-31T10:35:01;101552.54;;;30.35;32.93
82290;BME280;71891;21.336;-157.724;2023-07-31T10:37:28;101551.77;;;30.06;32.93
82290;BME280;71891;21.336;-157.724;2023-07-31T10:40:03;101542.35;;;29.53;33.21
82290;BME280;71891;21.336;-157.724;2023-07-31T10:42:17;101542.33;;;30.32;32.62
82290;BME280;71891;21.336;-157.724;2023-07-31T10:44:48;101539.56;;;30.69;32.54
82290;BME280;71891;21.336;-157.724;2023-07-31T10:47:09;101533.72;;;29.68;33.27
82290;BME280;71891;21.336;-157.724;2023-07-31T10:49:34;101535.35;;;30.85;32.14
82290;BME280;71891;21.336;-157.724;2023-07-31T10:52:04;101532.90;;;29.97;33.36
82290;BME280;71891;21.336;-157.724;2023-07-31T10:54:28;101534.93;;;29.85;33.42
82290;BME280;71891;21.336;-157.724;2023-07-31T10:56:51;101528.04;;;29.76;33.68
82290;BME280;71891;21.336;-157.724;2023-07-31T10:59:17;101526.23;;;29.48;33.42
82290;BME280;71891;21.336;-157.724;2023-07-31T11:01:50;101526.95;;;30.48;32.78
82290;BME280;71891;21.336;-157.724;2023-07-31T11:04:11;101525.53;;;30.69;32.47
82290;BME280;71891;21.336;-157.724;2023-07-31T11:06:37;101519.51;;;30.15;33.19
82290;BME280;71891;21.336;-157.724;2023-07-31T11:09:00;101516.09;;;29.43;33.61
82290;BME280;71891;21.336;-157.724;2023-07-31T11:11:25;101516.53;;;30.39;32.90
82290;BME280;71891;21.336;-157.724;2023-07-31T11:13:52;101518.11;;;30.98;32.45
82290;BME280;71891;21.336;-157.724;2023-07-31T11:16:18;101521.64;;;30.58;32.46
82290;BME280;71891;21.336;-157.724;2023-07-31T11:18:44;101519.31;;;30.21;33.18
82290;BME280;71891;21.336;-157.724;2023-07-31T11:21:08;101522.86;;;30.53;33.04
82290;BME280;71891;21.336;-157.724;2023-07-31T11:23:36;101524.24;;;30.37;32.70
82290;BME280;71891;21.336;-157.724;2023-07-31T11:26:00;101520.22;;;29.89;33.85
82290;BME280;71891;21.336;-157.724;2023-07-31T11:28:25;101516.22;;;30.51;33.03
82290;BME280;71891;21.336;-157.724;2023-07-31T11:30:51;101515.73;;;29.96;33.12
82290;BME280;71891;21.336;-157.724;2023-07-31T11:33:16;101513.66;;;31.14;32.97
82290;BME280;71891;21.336;-157.724;2023-07-31T11:35:44;101507.47;;;30.43;32.65
82290;BME280;71891;21.336;-157.724;2023-07-31T11:38:08;101505.05;;;29.82;33.91
82290;BME280;71891;21.336;-157.724;2023-07-31T11:40:41;101508.89;;;29.95;33.32
82290;BME280;71891;21.336;-157.724;2023-07-31T11:43:03;101504.41;;;29.44;34.20
82290;BME280;71891;21.336;-157.724;2023-07-31T11:45:26;101504.77;;;29.87;33.10
82290;BME280;71891;21.336;-157.724;2023-07-31T11:47:50;101507.84;;;30.31;33.19
82290;BME280;71891;21.336;-157.724;2023-07-31T11:50:16;101506.29;;;30.60;32.79
82290;BME280;71891;21.336;-157.724;2023-07-31T11:52:44;101496.92;;;30.35;33.17
82290;BME280;71891;21.336;-157.724;2023-07-31T11:55:08;101495.01;;;30.26;32.91
82290;BME280;71891;21.336;-157.724;2023-07-31T11:57:33;101493.57;;;31.31;31.92
82290;BME280;71891;21.336;-157.724;2023-07-31T11:59:59;101494.24;;;30.22;33.03
82290;BME280;71891;21.336;-157.724;2023-07-31T12:02:24;101485.58;;;31.44;32.45
82290;BME280;71891;21.336;-157.724;2023-07-31T12:04:50;101483.11;;;30.39;33.34
82290;BME280;71891;21.336;-157.724;2023-07-31T12:07:15;101477.71;;;29.64;33.82
82290;BME280;71891;21.336;-157.724;2023-07-31T12:09:51;101477.42;;;29.46;34.54
82290;BME280;71891;21.336;-157.724;2023-07-31T12:12:09;101479.82;;;29.87;34.03
82290;BME280;71891;21.336;-157.724;2023-07-31T12:14:32;101481.30;;;29.84;33.22
82290;BME280;71891;21.336;-157.724;2023-07-31T12:17:03;101476.89;;;29.95;33.65